sensor_id;sensor_type;location;lat;lon;timestamp;pressure;altitude;pressure_sealevel;temperature;humidity
9969;BME280;5025;48.890;9.278;2022-10-22T00:02:23;98530.28;;;14.52;87.21
9969;BME280;5025;48.890;9.278;2022-10-22T00:04:50;98535.72;;;14.52;87.09
9969;BME280;5025;48.890;9.278;2022-10-22T00:07:16;98522.38;;;14.50;87.22
9969;BME280;5025;48.890;9.278;2022-10-22T00:09:42;98523.72;;;14.48;87.50
9969;BME280;5025;48.890;9.278;2022-10-22T00:12:07;98543.84;;;14.47;87.43
9969;BME280;5025;48.890;9.278;2022-10-22T00:14:33;98525.06;;;14.45;87.30
9969;BME280;5025;48.890;9.278;2022-10-22T00:16:58;98516.91;;;14.45;87.31
9969;BME280;5025;48.890;9.278;2022-10-22T00:19:26;98520.72;;;14.44;87.23
9969;BME280;5025;48.890;9.278;2022-10-22T00:21:51;98521.78;;;14.43;87.37
9969;BME280;5025;48.890;9.278;2022-10-22T00:24:16;98516.88;;;14.40;87.17
9969;BME280;5025;48.890;9.278;2022-10-22T00:26:42;98521.50;;;14.40;87.09
9969;BME280;5025;48.890;9.278;2022-10-22T00:29:07;98529.09;;;14.38;86.98
9969;BME280;5025;48.890;9.278;2022-10-22T00:31:33;98524.47;;;14.38;87.00
9969;BME280;5025;48.890;9.278;2022-10-22T00:33:58;98521.19;;;14.36;86.75
9969;BME280;5025;48.890;9.278;2022-10-22T00:36:23;98519.00;;;14.33;86.65
9969;BME280;5025;48.890;9.278;2022-10-22T00:38:49;98526.03;;;14.29;86.73
9969;BME280;5025;48.890;9.278;2022-10-22T00:41:15;98532.22;;;14.24;86.91
9969;BME280;5025;48.890;9.278;2022-10-22T00:44:01;98528.72;;;14.24;86.97
9969;BME280;5025;48.890;9.278;2022-10-22T00:46:28;98524.34;;;14.23;86.93
9969;BME280;5025;48.890;9.278;2022-10-22T00:48:55;98530.03;;;14.21;86.50
9969;BME280;5025;48.890;9.278;2022-10-22T00:51:23;98533.81;;;14.20;86.75
9969;BME280;5025;48.890;9.278;2022-10-22T00:53:52;98524.31;;;14.18;86.72
9969;BME280;5025;48.890;9.278;2022-10-22T00:56:21;98521.84;;;14.16;87.04
9969;BME280;5025;48.890;9.278;2022-10-22T00:58:51;98525.91;;;14.13;86.65
9969;BME280;5025;48.890;9.278;2022-10-22T01:01:20;98520.44;;;14.08;86.85
9969;BME280;5025;48.890;9.278;2022-10-22T01:03:47;98522.88;;;14.10;87.03
9969;BME280;5025;48.890;9.278;2022-10-22T01:06:19;98501.97;;;14.10;86.94
9969;BME280;5025;48.890;9.278;2022-10-22T01:09:05;98510.13;;;14.10;86.96
9969;BME280;5025;48.890;9.278;2022-10-22T01:22:54;98488.56;;;13.98;87.84
9969;BME280;5025;48.890;9.278;2022-10-22T01:28:00;98473.91;;;13.99;88.04
9969;BME280;5025;48.890;9.278;2022-10-22T01:30:29;98480.47;;;14.04;87.89
9969;BME280;5025;48.890;9.278;2022-10-22T01:32:58;98486.72;;;14.04;87.75
9969;BME280;5025;48.890;9.278;2022-10-22T01:35:30;98490.50;;;14.03;87.87
9969;BME280;5025;48.890;9.278;2022-10-22T01:37:58;98489.69;;;14.03;87.80
9969;BME280;5025;48.890;9.278;2022-10-22T01:40:26;98492.16;;;14.04;87.73
9969;BME280;5025;48.890;9.278;2022-10-22T01:43:00;98509.75;;;14.02;87.95
9969;BME280;5025;48.890;9.278;2022-10-22T01:45:29;98525.53;;;14.05;87.99
9969;BME280;5025;48.890;9.278;2022-10-22T02:04:16;98517.13;;;14.06;87.77
9969;BME280;5025;48.890;9.278;2022-10-22T02:06:44;98529.66;;;14.07;87.87
9969;BME280;5025;48.890;9.278;2022-10-22T02:09:13;98528.22;;;13.99;87.96
9969;BME280;5025;48.890;9.278;2022-10-22T02:11:41;98536.09;;;14.01;87.93
9969;BME280;5025;48.890;9.278;2022-10-22T02:14:08;98532.31;;;14.02;87.93
9969;BME280;5025;48.890;9.278;2022-10-22T02:16:40;98537.50;;;14.04;88.00
9969;BME280;5025;48.890;9.278;2022-10-22T02:19:15;98534.53;;;14.05;87.72
9969;BME280;5025;48.890;9.278;2022-10-22T02:21:43;98550.22;;;14.03;87.85
9969;BME280;5025;48.890;9.278;2022-10-22T02:24:08;98551.06;;;14.04;87.72
9969;BME280;5025;48.890;9.278;2022-10-22T02:26:38;98545.31;;;14.00;87.92
9969;BME280;5025;48.890;9.278;2022-10-22T02:29:14;98539.34;;;13.98;88.14
9969;BME280;5025;48.890;9.278;2022-10-22T02:31:43;98547.47;;;13.98;88.09
9969;BME280;5025;48.890;9.278;2022-10-22T02:34:14;98549.13;;;13.99;88.20
9969;BME280;5025;48.890;9.278;2022-10-22T02:36:42;98536.66;;;14.03;87.92
9969;BME280;5025;48.890;9.278;2022-10-22T02:39:08;98533.94;;;14.03;87.99
9969;BME280;5025;48.890;9.278;2022-10-22T02:41:36;98539.94;;;14.05;88.01
9969;BME280;5025;48.890;9.278;2022-10-22T02:44:06;98538.84;;;14.06;88.12
9969;BME280;5025;48.890;9.278;2022-10-22T02:46:32;98538.59;;;14.08;88.06
9969;BME280;5025;48.890;9.278;2022-10-22T02:48:57;98537.53;;;14.09;88.05
9969;BME280;5025;48.890;9.278;2022-10-22T02:51:23;98544.59;;;14.10;87.93
9969;BME280;5025;48.890;9.278;2022-10-22T02:53:48;98555.47;;;14.10;87.72
9969;BME280;5025;48.890;9.278;2022-10-22T02:56:14;98548.38;;;14.09;87.99
9969;BME280;5025;48.890;9.278;2022-10-22T02:58:39;98540.78;;;14.11;87.83
9969;BME280;5025;48.890;9.278;2022-10-22T03:01:04;98539.44;;;14.08;87.80
9969;BME280;5025;48.890;9.278;2022-10-22T03:03:30;98548.66;;;14.07;87.94
9969;BME280;5025;48.890;9.278;2022-10-22T03:05:55;98558.44;;;14.08;87.98
9969;BME280;5025;48.890;9.278;2022-10-22T03:08:21;98545.13;;;14.07;88.05
9969;BME280;5025;48.890;9.278;2022-10-22T03:10:46;98545.69;;;14.09;88.09
9969;BME280;5025;48.890;9.278;2022-10-22T03:13:12;98529.66;;;14.07;87.85
9969;BME280;5025;48.890;9.278;2022-10-22T03:15:37;98522.56;;;14.06;87.83
9969;BME280;5025;48.890;9.278;2022-10-22T03:18:03;98515.50;;;14.05;87.98
9969;BME280;5025;48.890;9.278;2022-10-22T03:20:28;98523.66;;;14.05;87.97
9969;BME280;5025;48.890;9.278;2022-10-22T03:22:54;98525.78;;;14.03;88.14
9969;BME280;5025;48.890;9.278;2022-10-22T03:25:22;98538.31;;;14.04;87.87
9969;BME280;5025;48.890;9.278;2022-10-22T03:27:49;98526.38;;;14.05;88.18
9969;BME280;5025;48.890;9.278;2022-10-22T03:30:16;98523.06;;;14.03;87.85
9969;BME280;5025;48.890;9.278;2022-10-22T03:32:42;98514.38;;;14.01;87.96
9969;BME280;5025;48.890;9.278;2022-10-22T03:35:07;98501.56;;;13.96;88.02
9969;BME280;5025;48.890;9.278;2022-10-22T03:37:33;98495.28;;;13.91;88.25
9969;BME280;5025;48.890;9.278;2022-10-22T03:40:00;98499.34;;;13.88;88.38
9969;BME280;5025;48.890;9.278;2022-10-22T03:42:26;98511.00;;;13.89;88.27
9969;BME280;5025;48.890;9.278;2022-10-22T03:44:51;98506.38;;;13.89;88.51
9969;BME280;5025;48.890;9.278;2022-10-22T03:47:18;98503.69;;;13.89;88.44
9969;BME280;5025;48.890;9.278;2022-10-22T03:49:43;98501.53;;;13.91;88.42
9969;BME280;5025;48.890;9.278;2022-10-22T03:52:11;98495.84;;;13.93;88.25
9969;BME280;5025;48.890;9.278;2022-10-22T03:54:37;98497.47;;;13.94;88.13
9969;BME280;5025;48.890;9.278;2022-10-22T03:57:04;98492.03;;;13.94;88.11
9969;BME280;5025;48.890;9.278;2022-10-22T03:59:36;98499.09;;;13.90;88.28
9969;BME280;5025;48.890;9.278;2022-10-22T04:02:02;98508.03;;;13.90;88.19
9969;BME280;5025;48.890;9.278;2022-10-22T04:04:27;98508.28;;;13.89;88.34
9969;BME280;5025;48.890;9.278;2022-10-22T04:06:53;98511.53;;;13.86;88.30
9969;BME280;5025;48.890;9.278;2022-10-22T04:09:18;98530.53;;;13.86;88.36
9969;BME280;5025;48.890;9.278;2022-10-22T04:11:44;98527.81;;;13.86;88.44
9969;BME280;5025;48.890;9.278;2022-10-22T04:14:09;98529.47;;;13.87;88.28
9969;BME280;5025;48.890;9.278;2022-10-22T04:16:38;98522.38;;;13.86;88.27
9969;BME280;5025;48.890;9.278;2022-10-22T04:19:03;98532.19;;;13.87;88.26
9969;BME280;5025;48.890;9.278;2022-10-22T04:21:29;98541.69;;;13.89;88.11
9969;BME280;5025;48.890;9.278;2022-10-22T04:23:54;98546.84;;;13.91;88.12
9969;BME280;5025;48.890;9.278;2022-10-22T04:26:19;98540.34;;;13.92;87.91
9969;BME280;5025;48.890;9.278;2022-10-22T04:28:46;98540.06;;;13.88;88.06
9969;BME280;5025;48.890;9.278;2022-10-22T04:31:14;98554.94;;;13.86;88.07
9969;BME280;5025;48.890;9.278;2022-10-22T04:33:40;98562.03;;;13.87;88.19
9969;BME280;5025;48.890;9.278;2022-10-22T04:36:11;98550.34;;;13.86;88.04
9969;BME280;5025;48.890;9.278;2022-10-22T04:38:37;98537.34;;;13.88;88.04
9969;BME280;5025;48.890;9.278;2022-10-22T04:41:19;98538.16;;;13.89;88.04
9969;BME280;5025;48.890;9.278;2022-10-22T04:43:45;98546.03;;;13.90;87.86
9969;BME280;5025;48.890;9.278;2022-10-22T04:46:12;98541.94;;;13.88;88.21
9969;BME280;5025;48.890;9.278;2022-10-22T04:48:40;98545.75;;;13.87;88.17
9969;BME280;5025;48.890;9.278;2022-10-22T04:51:07;98545.16;;;13.85;88.02
9969;BME280;5025;48.890;9.278;2022-10-22T04:53:33;98548.72;;;13.85;87.96
9969;BME280;5025;48.890;9.278;2022-10-22T04:58:37;98542.97;;;13.81;87.88
9969;BME280;5025;48.890;9.278;2022-10-22T05:01:14;98542.41;;;13.79;88.16
9969;BME280;5025;48.890;9.278;2022-10-22T05:03:40;98548.91;;;13.78;88.18
9969;BME280;5025;48.890;9.278;2022-10-22T05:06:07;98552.19;;;13.80;87.78
9969;BME280;5025;48.890;9.278;2022-10-22T05:08:32;98561.69;;;13.83;87.91
9969;BME280;5025;48.890;9.278;2022-10-22T05:10:58;98569.59;;;13.85;87.98
9969;BME280;5025;48.890;9.278;2022-10-22T05:13:23;98565.81;;;13.86;87.85
9969;BME280;5025;48.890;9.278;2022-10-22T05:15:49;98559.56;;;13.85;87.51
9969;BME280;5025;48.890;9.278;2022-10-22T05:18:14;98570.19;;;13.87;87.60
9969;BME280;5025;48.890;9.278;2022-10-22T05:20:40;98583.25;;;13.90;87.64
9969;BME280;5025;48.890;9.278;2022-10-22T05:23:05;98580.53;;;13.90;87.47
9969;BME280;5025;48.890;9.278;2022-10-22T05:25:31;98589.72;;;13.89;87.48
9969;BME280;5025;48.890;9.278;2022-10-22T05:27:56;98593.25;;;13.89;87.29
9969;BME280;5025;48.890;9.278;2022-10-22T05:30:21;98598.94;;;13.88;87.44
9969;BME280;5025;48.890;9.278;2022-10-22T05:32:47;98612.25;;;13.89;87.38
9969;BME280;5025;48.890;9.278;2022-10-22T05:35:13;98619.59;;;13.89;87.47
9969;BME280;5025;48.890;9.278;2022-10-22T05:37:38;98615.81;;;13.90;87.34
9969;BME280;5025;48.890;9.278;2022-10-22T05:40:04;98615.22;;;13.88;87.36
9969;BME280;5025;48.890;9.278;2022-10-22T05:42:31;98629.63;;;13.88;87.38
9969;BME280;5025;48.890;9.278;2022-10-22T05:44:56;98622.81;;;13.86;87.12
9969;BME280;5025;48.890;9.278;2022-10-22T05:47:22;98626.84;;;13.83;87.17
9969;BME280;5025;48.890;9.278;2022-10-22T05:49:47;98633.63;;;13.80;87.23
9969;BME280;5025;48.890;9.278;2022-10-22T05:52:12;98641.44;;;13.77;87.52
9969;BME280;5025;48.890;9.278;2022-10-22T05:54:38;98634.03;;;13.72;87.37
9969;BME280;5025;48.890;9.278;2022-10-22T05:57:03;98655.75;;;13.72;87.36
9969;BME280;5025;48.890;9.278;2022-10-22T05:59:29;98654.38;;;13.70;87.39
9969;BME280;5025;48.890;9.278;2022-10-22T06:01:54;98662.78;;;13.68;87.69
9969;BME280;5025;48.890;9.278;2022-10-22T06:04:19;98671.19;;;13.67;87.27
9969;BME280;5025;48.890;9.278;2022-10-22T06:06:49;98682.28;;;13.65;87.60
9969;BME280;5025;48.890;9.278;2022-10-22T06:09:26;98671.94;;;13.62;87.72
9969;BME280;5025;48.890;9.278;2022-10-22T06:11:54;98673.28;;;13.65;87.80
9969;BME280;5025;48.890;9.278;2022-10-22T06:14:20;98680.88;;;13.62;87.67
9969;BME280;5025;48.890;9.278;2022-10-22T06:16:45;98686.56;;;13.61;87.70
9969;BME280;5025;48.890;9.278;2022-10-22T06:19:12;98688.22;;;13.62;87.89
9969;BME280;5025;48.890;9.278;2022-10-22T06:21:38;98685.16;;;13.58;87.83
9969;BME280;5025;48.890;9.278;2022-10-22T06:24:03;98692.22;;;13.59;87.94
9969;BME280;5025;48.890;9.278;2022-10-22T06:26:29;98702.28;;;13.59;88.10
9969;BME280;5025;48.890;9.278;2022-10-22T06:28:55;98706.06;;;13.58;88.02
9969;BME280;5025;48.890;9.278;2022-10-22T06:31:22;98703.34;;;13.58;88.21
9969;BME280;5025;48.890;9.278;2022-10-22T06:33:47;98716.91;;;13.58;88.07
9969;BME280;5025;48.890;9.278;2022-10-22T06:36:15;98722.06;;;13.59;88.25
9969;BME280;5025;48.890;9.278;2022-10-22T06:38:41;98721.81;;;13.61;88.22
9969;BME280;5025;48.890;9.278;2022-10-22T06:41:12;98731.38;;;13.63;88.40
9969;BME280;5025;48.890;9.278;2022-10-22T06:43:38;98726.75;;;13.64;88.46
9969;BME280;5025;48.890;9.278;2022-10-22T06:46:06;98737.66;;;13.69;88.44
9969;BME280;5025;48.890;9.278;2022-10-22T06:48:33;98741.03;;;13.76;88.26
9969;BME280;5025;48.890;9.278;2022-10-22T06:51:01;98737.00;;;13.79;88.14
9969;BME280;5025;48.890;9.278;2022-10-22T06:53:27;98738.88;;;13.78;88.03
9969;BME280;5025;48.890;9.278;2022-10-22T06:55:53;98742.19;;;13.80;88.26
9969;BME280;5025;48.890;9.278;2022-10-22T06:58:18;98740.03;;;13.83;88.23
9969;BME280;5025;48.890;9.278;2022-10-22T07:00:43;98751.19;;;13.86;88.24
9969;BME280;5025;48.890;9.278;2022-10-22T07:03:12;98755.31;;;13.89;88.30
9969;BME280;5025;48.890;9.278;2022-10-22T07:05:38;98760.50;;;13.90;88.28
9969;BME280;5025;48.890;9.278;2022-10-22T07:08:03;98759.75;;;13.95;88.39
9969;BME280;5025;48.890;9.278;2022-10-22T07:10:29;98765.16;;;13.95;88.15
9969;BME280;5025;48.890;9.278;2022-10-22T07:12:54;98774.47;;;13.99;88.11
9969;BME280;5025;48.890;9.278;2022-10-22T07:15:19;98770.91;;;13.98;88.13
9969;BME280;5025;48.890;9.278;2022-10-22T07:17:45;98777.75;;;14.01;88.21
9969;BME280;5025;48.890;9.278;2022-10-22T07:20:11;98777.50;;;14.03;88.22
9969;BME280;5025;48.890;9.278;2022-10-22T07:22:37;98782.41;;;14.06;88.12
9969;BME280;5025;48.890;9.278;2022-10-22T07:25:03;98785.94;;;14.06;88.17
9969;BME280;5025;48.890;9.278;2022-10-22T07:27:28;98797.41;;;14.08;88.00
9969;BME280;5025;48.890;9.278;2022-10-22T07:29:54;98800.44;;;14.12;87.99
9969;BME280;5025;48.890;9.278;2022-10-22T07:32:19;98796.66;;;14.13;88.07
9969;BME280;5025;48.890;9.278;2022-10-22T07:34:45;98782.56;;;14.16;88.17
9969;BME280;5025;48.890;9.278;2022-10-22T07:37:10;98803.53;;;14.21;88.02
9969;BME280;5025;48.890;9.278;2022-10-22T07:39:35;98794.03;;;14.23;87.91
9969;BME280;5025;48.890;9.278;2022-10-22T07:42:01;98789.75;;;14.27;87.97
9969;BME280;5025;48.890;9.278;2022-10-22T07:44:26;98794.69;;;14.30;87.89
9969;BME280;5025;48.890;9.278;2022-10-22T07:46:52;98801.53;;;14.33;87.76
9969;BME280;5025;48.890;9.278;2022-10-22T07:49:17;98805.59;;;14.35;87.69
9969;BME280;5025;48.890;9.278;2022-10-22T07:51:42;98807.00;;;14.38;87.70
9969;BME280;5025;48.890;9.278;2022-10-22T07:54:08;98806.50;;;14.41;87.50
9969;BME280;5025;48.890;9.278;2022-10-22T07:56:33;98805.72;;;14.46;87.32
9969;BME280;5025;48.890;9.278;2022-10-22T07:58:58;98815.84;;;14.50;87.26
9969;BME280;5025;48.890;9.278;2022-10-22T08:01:24;98807.44;;;14.52;87.22
9969;BME280;5025;48.890;9.278;2022-10-22T08:03:49;98805.03;;;14.56;87.25
9969;BME280;5025;48.890;9.278;2022-10-22T08:06:15;98806.16;;;14.60;86.94
9969;BME280;5025;48.890;9.278;2022-10-22T08:08:41;98820.09;;;14.63;86.90
9969;BME280;5025;48.890;9.278;2022-10-22T08:11:08;98811.94;;;14.63;86.73
9969;BME280;5025;48.890;9.278;2022-10-22T08:13:34;98812.50;;;14.65;86.62
9969;BME280;5025;48.890;9.278;2022-10-22T08:15:59;98815.78;;;14.67;86.75
9969;BME280;5025;48.890;9.278;2022-10-22T08:18:25;98817.75;;;14.72;86.61
9969;BME280;5025;48.890;9.278;2022-10-22T08:20:52;98811.81;;;14.75;86.45
9969;BME280;5025;48.890;9.278;2022-10-22T08:23:17;98818.94;;;14.81;86.43
9969;BME280;5025;48.890;9.278;2022-10-22T08:25:43;98814.88;;;14.84;86.29
9969;BME280;5025;48.890;9.278;2022-10-22T08:28:08;98816.25;;;14.86;86.27
9969;BME280;5025;48.890;9.278;2022-10-22T08:30:34;98820.13;;;14.91;86.10
9969;BME280;5025;48.890;9.278;2022-10-22T08:33:02;98827.00;;;14.98;85.99
9969;BME280;5025;48.890;9.278;2022-10-22T08:35:27;98826.47;;;15.01;85.74
9969;BME280;5025;48.890;9.278;2022-10-22T08:37:52;98823.81;;;15.06;85.47
9969;BME280;5025;48.890;9.278;2022-10-22T08:40:23;98828.78;;;15.15;85.41
9969;BME280;5025;48.890;9.278;2022-10-22T08:43:06;98829.13;;;15.23;84.95
9969;BME280;5025;48.890;9.278;2022-10-22T08:45:42;98821.84;;;15.29;84.81
9969;BME280;5025;48.890;9.278;2022-10-22T08:48:40;98820.28;;;15.38;84.63
9969;BME280;5025;48.890;9.278;2022-10-22T08:51:11;98820.84;;;15.40;84.35
9969;BME280;5025;48.890;9.278;2022-10-22T08:56:02;98817.06;;;15.41;84.06
9969;BME280;5025;48.890;9.278;2022-10-22T08:58:39;98821.13;;;15.44;83.90
9969;BME280;5025;48.890;9.278;2022-10-22T09:01:16;98821.75;;;15.51;83.56
9969;BME280;5025;48.890;9.278;2022-10-22T09:03:56;98820.97;;;15.56;83.31
9969;BME280;5025;48.890;9.278;2022-10-22T09:06:26;98816.91;;;15.58;83.15
9969;BME280;5025;48.890;9.278;2022-10-22T09:08:53;98828.13;;;15.67;83.08
9969;BME280;5025;48.890;9.278;2022-10-22T09:13:46;98825.28;;;15.84;82.26
9969;BME280;5025;48.890;9.278;2022-10-22T09:16:16;98824.50;;;15.94;82.32
9969;BME280;5025;48.890;9.278;2022-10-22T09:19:14;98824.91;;;16.13;81.98
9969;BME280;5025;48.890;9.278;2022-10-22T09:24:38;98824.47;;;16.31;81.44
9969;BME280;5025;48.890;9.278;2022-10-22T09:27:25;98824.19;;;16.33;81.06
9969;BME280;5025;48.890;9.278;2022-10-22T09:29:51;98827.75;;;16.39;80.88
9969;BME280;5025;48.890;9.278;2022-10-22T09:32:17;98821.22;;;16.45;80.70
9969;BME280;5025;48.890;9.278;2022-10-22T09:34:43;98827.81;;;16.54;80.35
9969;BME280;5025;48.890;9.278;2022-10-22T09:37:10;98825.94;;;16.65;80.02
9969;BME280;5025;48.890;9.278;2022-10-22T09:39:42;98830.06;;;16.73;79.48
9969;BME280;5025;48.890;9.278;2022-10-22T09:42:10;98826.56;;;16.82;78.95
9969;BME280;5025;48.890;9.278;2022-10-22T09:44:38;98839.16;;;16.94;78.88
9969;BME280;5025;48.890;9.278;2022-10-22T09:47:31;98837.00;;;17.06;78.43
9969;BME280;5025;48.890;9.278;2022-10-22T09:53:05;98845.75;;;17.24;77.56
9969;BME280;5025;48.890;9.278;2022-10-22T09:55:37;98851.78;;;17.31;77.10
9969;BME280;5025;48.890;9.278;2022-10-22T09:58:03;98852.03;;;17.29;76.68
9969;BME280;5025;48.890;9.278;2022-10-22T10:00:29;98861.03;;;17.35;76.44
9969;BME280;5025;48.890;9.278;2022-10-22T10:02:57;98860.78;;;17.42;76.04
9969;BME280;5025;48.890;9.278;2022-10-22T10:05:31;98863.50;;;17.52;75.71
9969;BME280;5025;48.890;9.278;2022-10-22T10:07:57;98861.31;;;17.64;75.14
9969;BME280;5025;48.890;9.278;2022-10-22T10:10:42;98874.16;;;17.69;74.91
9969;BME280;5025;48.890;9.278;2022-10-22T10:16:20;98875.53;;;17.82;74.27
9969;BME280;5025;48.890;9.278;2022-10-22T10:19:09;98875.53;;;17.92;74.02
9969;BME280;5025;48.890;9.278;2022-10-22T10:21:59;98870.06;;;18.02;73.32
9969;BME280;5025;48.890;9.278;2022-10-22T10:30:00;98881.84;;;18.08;70.55
9969;BME280;5025;48.890;9.278;2022-10-22T10:38:16;98876.03;;;18.40;70.39
9969;BME280;5025;48.890;9.278;2022-10-22T10:40:48;98886.09;;;18.50;69.65
9969;BME280;5025;48.890;9.278;2022-10-22T10:43:27;98897.06;;;18.40;65.70
9969;BME280;5025;48.890;9.278;2022-10-22T10:49:02;98893.50;;;18.44;64.91
9969;BME280;5025;48.890;9.278;2022-10-22T10:56:44;98895.59;;;18.73;64.34
9969;BME280;5025;48.890;9.278;2022-10-22T10:59:16;98893.38;;;18.75;64.41
9969;BME280;5025;48.890;9.278;2022-10-22T11:06:56;98895.09;;;19.21;62.50
9969;BME280;5025;48.890;9.278;2022-10-22T11:09:35;98891.53;;;19.26;62.32
9969;BME280;5025;48.890;9.278;2022-10-22T11:12:09;98881.88;;;19.33;62.24
9969;BME280;5025;48.890;9.278;2022-10-22T11:14:59;98888.63;;;19.46;62.10
9969;BME280;5025;48.890;9.278;2022-10-22T11:17:34;98885.56;;;19.53;62.30
9969;BME280;5025;48.890;9.278;2022-10-22T11:20:15;98886.41;;;19.53;61.68
9969;BME280;5025;48.890;9.278;2022-10-22T11:23:00;98884.25;;;19.50;61.67
9969;BME280;5025;48.890;9.278;2022-10-22T11:25:48;98884.25;;;19.85;61.57
9969;BME280;5025;48.890;9.278;2022-10-22T11:28:26;98887.88;;;20.10;61.22
9969;BME280;5025;48.890;9.278;2022-10-22T11:31:00;98876.31;;;20.37;61.30
9969;BME280;5025;48.890;9.278;2022-10-22T11:33:32;98877.72;;;20.58;61.11
9969;BME280;5025;48.890;9.278;2022-10-22T11:36:02;98876.03;;;20.63;60.91
9969;BME280;5025;48.890;9.278;2022-10-22T11:38:29;98879.03;;;20.66;61.11
9969;BME280;5025;48.890;9.278;2022-10-22T11:40:57;98879.88;;;20.62;61.09
9969;BME280;5025;48.890;9.278;2022-10-22T11:43:28;98873.88;;;20.59;60.74
9969;BME280;5025;48.890;9.278;2022-10-22T11:49:01;98870.25;;;20.64;59.85
9969;BME280;5025;48.890;9.278;2022-10-22T11:53:57;98863.56;;;20.51;58.54
9969;BME280;5025;48.890;9.278;2022-10-22T11:56:26;98863.13;;;20.63;58.76
9969;BME280;5025;48.890;9.278;2022-10-22T11:58:54;98867.34;;;20.80;58.13
9969;BME280;5025;48.890;9.278;2022-10-22T12:01:39;98865.75;;;20.98;58.11
9969;BME280;5025;48.890;9.278;2022-10-22T12:04:17;98868.41;;;21.22;57.88
9969;BME280;5025;48.890;9.278;2022-10-22T12:06:58;98860.63;;;21.29;56.80
9969;BME280;5025;48.890;9.278;2022-10-22T12:09:25;98863.00;;;21.36;56.65
9969;BME280;5025;48.890;9.278;2022-10-22T12:12:01;98862.91;;;21.41;55.60
9969;BME280;5025;48.890;9.278;2022-10-22T12:14:38;98867.69;;;21.54;55.40
9969;BME280;5025;48.890;9.278;2022-10-22T12:17:16;98861.13;;;21.69;55.09
9969;BME280;5025;48.890;9.278;2022-10-22T12:19:48;98865.84;;;21.82;55.00
9969;BME280;5025;48.890;9.278;2022-10-22T12:22:22;98861.72;;;21.99;54.41
9969;BME280;5025;48.890;9.278;2022-10-22T12:24:50;98858.97;;;21.99;54.12
9969;BME280;5025;48.890;9.278;2022-10-22T12:27:19;98855.50;;;22.07;54.01
9969;BME280;5025;48.890;9.278;2022-10-22T12:29:45;98853.31;;;22.23;53.99
9969;BME280;5025;48.890;9.278;2022-10-22T12:32:13;98848.16;;;22.35;53.74
9969;BME280;5025;48.890;9.278;2022-10-22T12:34:48;98845.25;;;22.27;51.95
9969;BME280;5025;48.890;9.278;2022-10-22T12:37:15;98849.66;;;22.42;52.50
9969;BME280;5025;48.890;9.278;2022-10-22T12:39:41;98845.78;;;22.70;52.23
9969;BME280;5025;48.890;9.278;2022-10-22T12:42:12;98844.81;;;22.89;51.75
9969;BME280;5025;48.890;9.278;2022-10-22T12:44:38;98849.09;;;22.95;51.79
9969;BME280;5025;48.890;9.278;2022-10-22T12:47:05;98838.09;;;22.95;51.33
9969;BME280;5025;48.890;9.278;2022-10-22T12:49:38;98839.81;;;22.91;51.35
9969;BME280;5025;48.890;9.278;2022-10-22T12:52:06;98838.72;;;22.78;51.62
9969;BME280;5025;48.890;9.278;2022-10-22T12:54:35;98836.78;;;22.65;52.13
9969;BME280;5025;48.890;9.278;2022-10-22T12:57:01;98838.94;;;22.54;52.54
9969;BME280;5025;48.890;9.278;2022-10-22T12:59:35;98829.75;;;22.59;52.37
9969;BME280;5025;48.890;9.278;2022-10-22T13:02:08;98831.69;;;22.86;52.10
9969;BME280;5025;48.890;9.278;2022-10-22T13:04:40;98830.00;;;23.13;51.52
9969;BME280;5025;48.890;9.278;2022-10-22T13:09:40;98828.59;;;23.60;50.20
9969;BME280;5025;48.890;9.278;2022-10-22T13:12:08;98833.72;;;23.76;49.87
9969;BME280;5025;48.890;9.278;2022-10-22T13:14:39;98832.88;;;23.98;49.19
9969;BME280;5025;48.890;9.278;2022-10-22T13:17:37;98830.72;;;24.17;48.42
9969;BME280;5025;48.890;9.278;2022-10-22T13:22:40;98832.50;;;24.22;47.43
9969;BME280;5025;48.890;9.278;2022-10-22T13:27:42;98833.28;;;23.60;43.97
9969;BME280;5025;48.890;9.278;2022-10-22T13:32:49;98830.91;;;23.44;44.63
9969;BME280;5025;48.890;9.278;2022-10-22T13:35:16;98826.81;;;23.87;44.37
9969;BME280;5025;48.890;9.278;2022-10-22T13:37:43;98827.91;;;24.09;43.16
9969;BME280;5025;48.890;9.278;2022-10-22T13:40:12;98830.00;;;24.03;42.25
9969;BME280;5025;48.890;9.278;2022-10-22T13:42:38;98823.91;;;24.24;43.07
9969;BME280;5025;48.890;9.278;2022-10-22T13:45:04;98825.25;;;24.35;42.02
9969;BME280;5025;48.890;9.278;2022-10-22T13:47:29;98824.41;;;24.26;41.81
9969;BME280;5025;48.890;9.278;2022-10-22T13:49:57;98822.47;;;24.26;41.92
9969;BME280;5025;48.890;9.278;2022-10-22T13:52:42;98815.19;;;24.88;41.49
9969;BME280;5025;48.890;9.278;2022-10-22T13:55:18;98821.41;;;25.29;40.80
9969;BME280;5025;48.890;9.278;2022-10-22T13:57:44;98817.31;;;25.52;40.53
9969;BME280;5025;48.890;9.278;2022-10-22T14:00:15;98808.66;;;25.71;39.23
9969;BME280;5025;48.890;9.278;2022-10-22T14:02:41;98809.13;;;26.00;39.60
9969;BME280;5025;48.890;9.278;2022-10-22T14:05:07;98807.63;;;26.02;38.95
9969;BME280;5025;48.890;9.278;2022-10-22T14:07:34;98813.69;;;26.34;38.96
9969;BME280;5025;48.890;9.278;2022-10-22T14:10:01;98808.88;;;26.82;38.98
9969;BME280;5025;48.890;9.278;2022-10-22T14:12:27;98808.19;;;27.06;38.39
9969;BME280;5025;48.890;9.278;2022-10-22T14:14:52;98818.13;;;27.28;38.25
9969;BME280;5025;48.890;9.278;2022-10-22T14:17:18;98814.50;;;27.36;37.71
9969;BME280;5025;48.890;9.278;2022-10-22T14:19:45;98811.59;;;27.12;36.47
9969;BME280;5025;48.890;9.278;2022-10-22T14:22:18;98812.78;;;27.23;36.57
9969;BME280;5025;48.890;9.278;2022-10-22T14:24:45;98822.34;;;27.34;36.62
9969;BME280;5025;48.890;9.278;2022-10-22T14:27:14;98825.72;;;27.40;36.23
9969;BME280;5025;48.890;9.278;2022-10-22T14:29:39;98813.41;;;27.29;36.14
9969;BME280;5025;48.890;9.278;2022-10-22T14:32:11;98818.56;;;27.39;36.07
9969;BME280;5025;48.890;9.278;2022-10-22T14:34:37;98811.66;;;27.45;35.93
9969;BME280;5025;48.890;9.278;2022-10-22T14:37:02;98806.97;;;27.37;36.04
9969;BME280;5025;48.890;9.278;2022-10-22T14:39:28;98817.66;;;27.47;35.69
9969;BME280;5025;48.890;9.278;2022-10-22T14:41:53;98818.69;;;27.43;35.60
9969;BME280;5025;48.890;9.278;2022-10-22T14:44:18;98820.50;;;27.39;35.64
9969;BME280;5025;48.890;9.278;2022-10-22T14:46:44;98817.19;;;27.24;35.62
9969;BME280;5025;48.890;9.278;2022-10-22T14:49:11;98813.69;;;27.15;35.72
9969;BME280;5025;48.890;9.278;2022-10-22T14:51:36;98816.91;;;27.17;35.65
9969;BME280;5025;48.890;9.278;2022-10-22T14:54:02;98816.66;;;27.10;35.46
9969;BME280;5025;48.890;9.278;2022-10-22T14:56:27;98808.28;;;26.97;35.68
9969;BME280;5025;48.890;9.278;2022-10-22T14:58:52;98823.81;;;26.90;35.83